sensor_id;sensor_type;location;lat;lon;timestamp;temperature;humidity
35603;DHT22;21725;50.836;4.368;2023-06-14T00:00:11;24.10;65.40
35603;DHT22;21725;50.836;4.368;2023-06-14T00:03:12;24.00;65.70
35603;DHT22;21725;50.836;4.368;2023-06-14T00:06:18;23.90;65.90
35603;DHT22;21725;50.836;4.368;2023-06-14T00:09:18;23.80;66.10
35603;DHT22;21725;50.836;4.368;2023-06-14T00:12:19;23.70;66.40
35603;DHT22;21725;50.836;4.368;2023-06-14T00:15:20;23.80;66.20
35603;DHT22;21725;50.836;4.368;2023-06-14T00:18:21;23.80;66.10
35603;DHT22;21725;50.836;4.368;2023-06-14T00:21:24;23.90;66.00
35603;DHT22;21725;50.836;4.368;2023-06-14T00:24:25;23.70;66.20
35603;DHT22;21725;50.836;4.368;2023-06-14T00:27:26;23.70;66.40
35603;DHT22;21725;50.836;4.368;2023-06-14T00:30:26;23.70;66.50
35603;DHT22;21725;50.836;4.368;2023-06-14T00:33:30;23.60;66.70
35603;DHT22;21725;50.836;4.368;2023-06-14T00:36:31;23.60;66.70
35603;DHT22;21725;50.836;4.368;2023-06-14T00:39:32;23.60;66.60
35603;DHT22;21725;50.836;4.368;2023-06-14T00:42:33;23.70;66.50
35603;DHT22;21725;50.836;4.368;2023-06-14T00:45:34;23.50;66.80
35603;DHT22;21725;50.836;4.368;2023-06-14T00:48:37;23.50;67.00
35603;DHT22;21725;50.836;4.368;2023-06-14T00:51:39;23.40;67.30
35603;DHT22;21725;50.836;4.368;2023-06-14T00:54:40;23.30;67.40
35603;DHT22;21725;50.836;4.368;2023-06-14T00:57:42;23.30;67.60
35603;DHT22;21725;50.836;4.368;2023-06-14T01:00:43;23.30;67.50
35603;DHT22;21725;50.836;4.368;2023-06-14T01:03:44;23.30;67.50
35603;DHT22;21725;50.836;4.368;2023-06-14T01:13:40;23.30;67.50
35603;DHT22;21725;50.836;4.368;2023-06-14T01:16:43;23.20;67.70
35603;DHT22;21725;50.836;4.368;2023-06-14T01:19:45;23.20;67.80
35603;DHT22;21725;50.836;4.368;2023-06-14T01:22:53;23.10;67.90
35603;DHT22;21725;50.836;4.368;2023-06-14T01:25:54;23.20;67.90
35603;DHT22;21725;50.836;4.368;2023-06-14T01:28:55;23.20;68.00
35603;DHT22;21725;50.836;4.368;2023-06-14T01:31:59;23.10;68.20
35603;DHT22;21725;50.836;4.368;2023-06-14T01:35:01;23.10;68.30
35603;DHT22;21725;50.836;4.368;2023-06-14T01:38:03;23.00;68.30
35603;DHT22;21725;50.836;4.368;2023-06-14T01:41:04;23.00;68.60
35603;DHT22;21725;50.836;4.368;2023-06-14T01:44:06;22.80;69.10
35603;DHT22;21725;50.836;4.368;2023-06-14T01:47:07;22.80;69.20
35603;DHT22;21725;50.836;4.368;2023-06-14T01:50:08;22.80;69.40
35603;DHT22;21725;50.836;4.368;2023-06-14T01:53:10;22.70;69.70
35603;DHT22;21725;50.836;4.368;2023-06-14T01:56:11;22.60;69.90
35603;DHT22;21725;50.836;4.368;2023-06-14T01:59:12;22.50;70.00
35603;DHT22;21725;50.836;4.368;2023-06-14T02:02:13;22.50;70.00
35603;DHT22;21725;50.836;4.368;2023-06-14T02:05:13;22.50;70.00
35603;DHT22;21725;50.836;4.368;2023-06-14T02:08:15;22.40;70.50
35603;DHT22;21725;50.836;4.368;2023-06-14T02:11:16;22.20;70.70
35603;DHT22;21725;50.836;4.368;2023-06-14T02:14:17;22.20;70.80
35603;DHT22;21725;50.836;4.368;2023-06-14T02:17:18;22.10;71.10
35603;DHT22;21725;50.836;4.368;2023-06-14T02:20:19;22.00;71.40
35603;DHT22;21725;50.836;4.368;2023-06-14T02:23:19;22.00;71.50
35603;DHT22;21725;50.836;4.368;2023-06-14T02:26:20;22.00;71.40
35603;DHT22;21725;50.836;4.368;2023-06-14T02:29:21;22.00;71.40
35603;DHT22;21725;50.836;4.368;2023-06-14T02:32:22;21.90;71.70
35603;DHT22;21725;50.836;4.368;2023-06-14T02:35:23;21.90;71.70
35603;DHT22;21725;50.836;4.368;2023-06-14T02:38:26;21.90;71.70
35603;DHT22;21725;50.836;4.368;2023-06-14T02:41:27;21.90;71.80
35603;DHT22;21725;50.836;4.368;2023-06-14T02:44:29;21.90;71.90
35603;DHT22;21725;50.836;4.368;2023-06-14T02:47:30;21.80;72.20
35603;DHT22;21725;50.836;4.368;2023-06-14T02:50:30;21.70;72.30
35603;DHT22;21725;50.836;4.368;2023-06-14T02:53:32;21.50;72.70
35603;DHT22;21725;50.836;4.368;2023-06-14T02:56:33;21.40;73.10
35603;DHT22;21725;50.836;4.368;2023-06-14T02:59:34;21.40;73.00
35603;DHT22;21725;50.836;4.368;2023-06-14T03:02:35;21.40;72.90
35603;DHT22;21725;50.836;4.368;2023-06-14T03:05:36;21.50;72.60
35603;DHT22;21725;50.836;4.368;2023-06-14T03:08:37;21.50;72.80
35603;DHT22;21725;50.836;4.368;2023-06-14T03:11:42;21.40;73.00
35603;DHT22;21725;50.836;4.368;2023-06-14T03:14:42;21.40;73.00
35603;DHT22;21725;50.836;4.368;2023-06-14T03:17:46;21.30;73.50
35603;DHT22;21725;50.836;4.368;2023-06-14T03:20:49;21.30;73.50
35603;DHT22;21725;50.836;4.368;2023-06-14T03:23:51;21.40;73.40
35603;DHT22;21725;50.836;4.368;2023-06-14T03:26:53;21.50;73.10
35603;DHT22;21725;50.836;4.368;2023-06-14T03:29:55;21.60;73.10
35603;DHT22;21725;50.836;4.368;2023-06-14T03:32:56;21.50;72.80
35603;DHT22;21725;50.836;4.368;2023-06-14T03:35:57;21.40;73.30
35603;DHT22;21725;50.836;4.368;2023-06-14T03:38:57;21.30;73.50
35603;DHT22;21725;50.836;4.368;2023-06-14T03:41:58;21.30;73.50
35603;DHT22;21725;50.836;4.368;2023-06-14T03:44:59;21.40;73.50
35603;DHT22;21725;50.836;4.368;2023-06-14T03:48:00;21.30;73.30
35603;DHT22;21725;50.836;4.368;2023-06-14T03:51:01;21.30;73.30
35603;DHT22;21725;50.836;4.368;2023-06-14T03:54:02;21.40;73.40
35603;DHT22;21725;50.836;4.368;2023-06-14T03:57:03;21.30;73.50
35603;DHT22;21725;50.836;4.368;2023-06-14T04:00:04;21.30;73.50
35603;DHT22;21725;50.836;4.368;2023-06-14T04:03:06;21.10;73.80
35603;DHT22;21725;50.836;4.368;2023-06-14T04:06:07;21.10;74.10
35603;DHT22;21725;50.836;4.368;2023-06-14T04:09:08;21.20;73.70
35603;DHT22;21725;50.836;4.368;2023-06-14T04:12:09;21.20;73.90
35603;DHT22;21725;50.836;4.368;2023-06-14T04:15:11;20.90;74.40
35603;DHT22;21725;50.836;4.368;2023-06-14T04:18:13;20.80;74.80
35603;DHT22;21725;50.836;4.368;2023-06-14T04:21:14;20.80;74.90
35603;DHT22;21725;50.836;4.368;2023-06-14T04:24:15;20.70;75.20
35603;DHT22;21725;50.836;4.368;2023-06-14T04:27:15;20.80;75.10
35603;DHT22;21725;50.836;4.368;2023-06-14T04:30:22;20.70;75.10
35603;DHT22;21725;50.836;4.368;2023-06-14T04:33:27;20.70;75.40
35603;DHT22;21725;50.836;4.368;2023-06-14T04:36:28;20.80;75.10
35603;DHT22;21725;50.836;4.368;2023-06-14T04:39:28;20.80;74.90
35603;DHT22;21725;50.836;4.368;2023-06-14T04:42:29;20.90;74.80
35603;DHT22;21725;50.836;4.368;2023-06-14T04:45:31;20.80;74.90
35603;DHT22;21725;50.836;4.368;2023-06-14T04:48:32;20.80;75.20
35603;DHT22;21725;50.836;4.368;2023-06-14T04:51:33;20.80;75.00
35603;DHT22;21725;50.836;4.368;2023-06-14T04:54:34;20.80;75.20
35603;DHT22;21725;50.836;4.368;2023-06-14T04:57:37;20.90;74.90
35603;DHT22;21725;50.836;4.368;2023-06-14T05:00:38;21.00;74.40
35603;DHT22;21725;50.836;4.368;2023-06-14T05:03:39;21.00;74.50
35603;DHT22;21725;50.836;4.368;2023-06-14T05:06:44;21.00;74.70
35603;DHT22;21725;50.836;4.368;2023-06-14T05:09:45;21.00;74.70
35603;DHT22;21725;50.836;4.368;2023-06-14T05:12:46;20.90;74.80
35603;DHT22;21725;50.836;4.368;2023-06-14T05:15:48;21.10;74.50
35603;DHT22;21725;50.836;4.368;2023-06-14T05:18:49;21.10;74.60
35603;DHT22;21725;50.836;4.368;2023-06-14T05:21:51;21.20;74.10
35603;DHT22;21725;50.836;4.368;2023-06-14T05:24:52;21.40;73.80
35603;DHT22;21725;50.836;4.368;2023-06-14T05:27:52;21.40;73.80
35603;DHT22;21725;50.836;4.368;2023-06-14T05:30:55;21.40;73.80
35603;DHT22;21725;50.836;4.368;2023-06-14T05:33:56;21.50;73.90
35603;DHT22;21725;50.836;4.368;2023-06-14T05:36:56;21.50;73.70
35603;DHT22;21725;50.836;4.368;2023-06-14T05:39:57;21.50;73.50
35603;DHT22;21725;50.836;4.368;2023-06-14T05:42:58;21.50;73.80
35603;DHT22;21725;50.836;4.368;2023-06-14T05:45:59;21.70;73.50
35603;DHT22;21725;50.836;4.368;2023-06-14T05:49:00;21.90;73.10
35603;DHT22;21725;50.836;4.368;2023-06-14T05:52:00;22.20;72.10
35603;DHT22;21725;50.836;4.368;2023-06-14T05:55:01;22.40;71.70
35603;DHT22;21725;50.836;4.368;2023-06-14T05:58:02;22.40;71.50
35603;DHT22;21725;50.836;4.368;2023-06-14T06:01:03;22.50;71.70
35603;DHT22;21725;50.836;4.368;2023-06-14T06:04:04;22.70;71.20
35603;DHT22;21725;50.836;4.368;2023-06-14T06:07:05;22.80;71.60
35603;DHT22;21725;50.836;4.368;2023-06-14T06:10:06;22.90;71.40
35603;DHT22;21725;50.836;4.368;2023-06-14T06:13:07;23.20;71.00
35603;DHT22;21725;50.836;4.368;2023-06-14T06:16:08;23.60;70.30
35603;DHT22;21725;50.836;4.368;2023-06-14T06:19:09;24.50;69.30
35603;DHT22;21725;50.836;4.368;2023-06-14T06:33:50;27.20;64.50
35603;DHT22;21725;50.836;4.368;2023-06-14T06:36:51;27.80;63.50
35603;DHT22;21725;50.836;4.368;2023-06-14T06:39:52;28.30;63.20
35603;DHT22;21725;50.836;4.368;2023-06-14T06:42:52;29.40;62.30
35603;DHT22;21725;50.836;4.368;2023-06-14T06:45:54;30.20;60.80
35603;DHT22;21725;50.836;4.368;2023-06-14T06:48:55;30.40;60.00
35603;DHT22;21725;50.836;4.368;2023-06-14T06:52:03;30.30;60.30
35603;DHT22;21725;50.836;4.368;2023-06-14T06:55:04;30.20;60.30
35603;DHT22;21725;50.836;4.368;2023-06-14T06:58:05;30.40;59.50
35603;DHT22;21725;50.836;4.368;2023-06-14T07:01:06;30.30;59.80
35603;DHT22;21725;50.836;4.368;2023-06-14T07:04:09;30.60;59.50
35603;DHT22;21725;50.836;4.368;2023-06-14T07:07:10;30.90;59.30
35603;DHT22;21725;50.836;4.368;2023-06-14T07:10:11;31.50;59.10
35603;DHT22;21725;50.836;4.368;2023-06-14T07:13:11;32.00;58.50
35603;DHT22;21725;50.836;4.368;2023-06-14T07:16:12;31.80;58.20
35603;DHT22;21725;50.836;4.368;2023-06-14T07:19:13;32.20;58.10
35603;DHT22;21725;50.836;4.368;2023-06-14T07:22:14;32.80;57.60
35603;DHT22;21725;50.836;4.368;2023-06-14T07:25:14;32.60;57.40
35603;DHT22;21725;50.836;4.368;2023-06-14T07:28:16;32.20;57.40
35603;DHT22;21725;50.836;4.368;2023-06-14T07:31:18;32.20;57.30
35603;DHT22;21725;50.836;4.368;2023-06-14T07:34:19;31.70;58.10
35603;DHT22;21725;50.836;4.368;2023-06-14T07:37:20;31.80;57.70
35603;DHT22;21725;50.836;4.368;2023-06-14T07:40:21;32.40;57.70
35603;DHT22;21725;50.836;4.368;2023-06-14T07:43:21;33.20;57.20
35603;DHT22;21725;50.836;4.368;2023-06-14T07:46:22;33.20;57.30
35603;DHT22;21725;50.836;4.368;2023-06-14T07:49:23;33.20;57.00
35603;DHT22;21725;50.836;4.368;2023-06-14T07:52:23;32.90;57.20
35603;DHT22;21725;50.836;4.368;2023-06-14T07:55:25;32.90;56.80
35603;DHT22;21725;50.836;4.368;2023-06-14T07:58:26;32.80;56.80
35603;DHT22;21725;50.836;4.368;2023-06-14T08:01:26;32.80;57.40
35603;DHT22;21725;50.836;4.368;2023-06-14T08:04:28;33.10;57.00
35603;DHT22;21725;50.836;4.368;2023-06-14T08:07:29;33.10;56.80
35603;DHT22;21725;50.836;4.368;2023-06-14T08:10:29;33.50;56.80
35603;DHT22;21725;50.836;4.368;2023-06-14T08:13:30;33.70;56.50
35603;DHT22;21725;50.836;4.368;2023-06-14T08:16:31;33.70;55.90
35603;DHT22;21725;50.836;4.368;2023-06-14T08:19:31;33.30;56.80
35603;DHT22;21725;50.836;4.368;2023-06-14T08:22:32;33.70;56.70
35603;DHT22;21725;50.836;4.368;2023-06-14T08:25:34;34.10;55.60
35603;DHT22;21725;50.836;4.368;2023-06-14T08:28:35;33.90;56.60
35603;DHT22;21725;50.836;4.368;2023-06-14T08:31:36;33.40;56.70
35603;DHT22;21725;50.836;4.368;2023-06-14T08:34:37;32.20;57.40
35603;DHT22;21725;50.836;4.368;2023-06-14T08:37:41;30.90;59.10
35603;DHT22;21725;50.836;4.368;2023-06-14T08:40:42;29.90;59.50
35603;DHT22;21725;50.836;4.368;2023-06-14T08:43:43;29.10;59.90
35603;DHT22;21725;50.836;4.368;2023-06-14T08:46:44;28.50;60.90
35603;DHT22;21725;50.836;4.368;2023-06-14T08:49:47;27.90;62.20
35603;DHT22;21725;50.836;4.368;2023-06-14T08:52:53;27.40;63.50
35603;DHT22;21725;50.836;4.368;2023-06-14T08:55:54;27.00;63.70
35603;DHT22;21725;50.836;4.368;2023-06-14T08:58:57;27.00;64.10
35603;DHT22;21725;50.836;4.368;2023-06-14T09:01:58;27.00;63.70
35603;DHT22;21725;50.836;4.368;2023-06-14T09:05:00;27.10;63.70
35603;DHT22;21725;50.836;4.368;2023-06-14T09:08:01;27.00;64.70
35603;DHT22;21725;50.836;4.368;2023-06-14T09:11:02;26.60;65.10
35603;DHT22;21725;50.836;4.368;2023-06-14T09:14:02;26.50;66.00
35603;DHT22;21725;50.836;4.368;2023-06-14T09:17:04;26.60;66.20
35603;DHT22;21725;50.836;4.368;2023-06-14T09:20:08;26.80;66.50
35603;DHT22;21725;50.836;4.368;2023-06-14T09:23:21;26.90;67.00
35603;DHT22;21725;50.836;4.368;2023-06-14T09:26:22;26.80;67.40
35603;DHT22;21725;50.836;4.368;2023-06-14T09:29:28;26.90;67.20
35603;DHT22;21725;50.836;4.368;2023-06-14T09:32:29;27.00;66.60
35603;DHT22;21725;50.836;4.368;2023-06-14T09:35:34;27.00;64.30
35603;DHT22;21725;50.836;4.368;2023-06-14T09:38:35;26.70;65.80
35603;DHT22;21725;50.836;4.368;2023-06-14T09:41:37;26.60;65.30
35603;DHT22;21725;50.836;4.368;2023-06-14T09:44:38;26.70;64.70
35603;DHT22;21725;50.836;4.368;2023-06-14T09:47:39;26.80;65.20
35603;DHT22;21725;50.836;4.368;2023-06-14T09:50:40;27.00;64.40
35603;DHT22;21725;50.836;4.368;2023-06-14T09:53:42;27.10;64.80
35603;DHT22;21725;50.836;4.368;2023-06-14T09:56:47;27.20;64.30
35603;DHT22;21725;50.836;4.368;2023-06-14T09:59:53;27.30;63.30
35603;DHT22;21725;50.836;4.368;2023-06-14T10:02:58;27.30;64.20
35603;DHT22;21725;50.836;4.368;2023-06-14T10:06:03;27.30;64.00
35603;DHT22;21725;50.836;4.368;2023-06-14T10:09:08;27.50;63.00
35603;DHT22;21725;50.836;4.368;2023-06-14T10:12:09;27.50;63.00
35603;DHT22;21725;50.836;4.368;2023-06-14T10:15:16;27.50;60.70
35603;DHT22;21725;50.836;4.368;2023-06-14T10:24:57;27.10;61.70
35603;DHT22;21725;50.836;4.368;2023-06-14T10:28:18;27.30;62.20
35603;DHT22;21725;50.836;4.368;2023-06-14T10:31:19;27.40;61.50
35603;DHT22;21725;50.836;4.368;2023-06-14T10:34:25;27.70;61.30
35603;DHT22;21725;50.836;4.368;2023-06-14T10:37:27;27.80;61.30
35603;DHT22;21725;50.836;4.368;2023-06-14T10:40:31;28.10;60.50
35603;DHT22;21725;50.836;4.368;2023-06-14T10:43:33;28.20;58.10
35603;DHT22;21725;50.836;4.368;2023-06-14T10:46:33;28.10;60.30
35603;DHT22;21725;50.836;4.368;2023-06-14T10:49:41;27.90;61.50
35603;DHT22;21725;50.836;4.368;2023-06-14T10:52:43;27.90;61.40
35603;DHT22;21725;50.836;4.368;2023-06-14T10:55:44;28.10;61.10
35603;DHT22;21725;50.836;4.368;2023-06-14T10:58:44;28.20;60.50
35603;DHT22;21725;50.836;4.368;2023-06-14T11:05:08;28.00;59.80
35603;DHT22;21725;50.836;4.368;2023-06-14T11:11:32;27.90;60.10
35603;DHT22;21725;50.836;4.368;2023-06-14T11:14:36;28.00;60.40
35603;DHT22;21725;50.836;4.368;2023-06-14T11:17:36;28.30;59.30
35603;DHT22;21725;50.836;4.368;2023-06-14T11:20:37;28.50;59.20
35603;DHT22;21725;50.836;4.368;2023-06-14T11:23:38;28.50;58.90
35603;DHT22;21725;50.836;4.368;2023-06-14T11:26:40;28.50;58.80
35603;DHT22;21725;50.836;4.368;2023-06-14T11:29:48;28.50;58.60
35603;DHT22;21725;50.836;4.368;2023-06-14T11:32:51;28.20;58.90
35603;DHT22;21725;50.836;4.368;2023-06-14T11:35:52;28.20;59.20
35603;DHT22;21725;50.836;4.368;2023-06-14T11:39:02;28.20;59.60
35603;DHT22;21725;50.836;4.368;2023-06-14T11:42:04;28.20;59.00
35603;DHT22;21725;50.836;4.368;2023-06-14T11:45:08;28.20;59.00
35603;DHT22;21725;50.836;4.368;2023-06-14T11:48:09;27.80;59.30
35603;DHT22;21725;50.836;4.368;2023-06-14T11:51:09;27.70;59.50
35603;DHT22;21725;50.836;4.368;2023-06-14T11:54:12;28.00;59.60
35603;DHT22;21725;50.836;4.368;2023-06-14T11:57:12;28.00;59.30
35603;DHT22;21725;50.836;4.368;2023-06-14T12:00:14;28.30;59.30
35603;DHT22;21725;50.836;4.368;2023-06-14T12:03:16;28.70;58.90
35603;DHT22;21725;50.836;4.368;2023-06-14T12:06:26;28.90;58.30
35603;DHT22;21725;50.836;4.368;2023-06-14T12:09:28;28.90;58.40
35603;DHT22;21725;50.836;4.368;2023-06-14T12:12:29;28.90;58.70
35603;DHT22;21725;50.836;4.368;2023-06-14T12:15:31;29.30;58.20
35603;DHT22;21725;50.836;4.368;2023-06-14T12:18:39;29.30;58.20
35603;DHT22;21725;50.836;4.368;2023-06-14T12:21:42;29.20;58.10
35603;DHT22;21725;50.836;4.368;2023-06-14T12:24:43;29.00;58.40
35603;DHT22;21725;50.836;4.368;2023-06-14T12:27:44;29.00;57.90
35603;DHT22;21725;50.836;4.368;2023-06-14T12:30:47;29.00;57.70
35603;DHT22;21725;50.836;4.368;2023-06-14T12:33:48;29.00;57.10
35603;DHT22;21725;50.836;4.368;2023-06-14T12:36:52;28.90;56.40
35603;DHT22;21725;50.836;4.368;2023-06-14T12:39:53;28.80;56.90
35603;DHT22;21725;50.836;4.368;2023-06-14T12:42:54;28.50;57.20
35603;DHT22;21725;50.836;4.368;2023-06-14T12:45:55;28.90;57.40
35603;DHT22;21725;50.836;4.368;2023-06-14T12:48:56;29.00;57.40
35603;DHT22;21725;50.836;4.368;2023-06-14T12:51:56;29.10;56.70
35603;DHT22;21725;50.836;4.368;2023-06-14T12:54:57;29.10;56.60
35603;DHT22;21725;50.836;4.368;2023-06-14T12:57:58;29.20;56.90
35603;DHT22;21725;50.836;4.368;2023-06-14T13:00:59;29.20;57.20
35603;DHT22;21725;50.836;4.368;2023-06-14T13:03:59;29.10;57.00
35603;DHT22;21725;50.836;4.368;2023-06-14T13:07:00;28.80;57.50
35603;DHT22;21725;50.836;4.368;2023-06-14T13:13:08;28.70;57.50
35603;DHT22;21725;50.836;4.368;2023-06-14T13:16:09;28.90;57.80
35603;DHT22;21725;50.836;4.368;2023-06-14T13:19:11;28.90;56.90
35603;DHT22;21725;50.836;4.368;2023-06-14T13:22:12;28.90;57.30
35603;DHT22;21725;50.836;4.368;2023-06-14T13:25:12;28.70;57.50
35603;DHT22;21725;50.836;4.368;2023-06-14T13:28:13;28.70;57.30
35603;DHT22;21725;50.836;4.368;2023-06-14T13:31:14;28.70;57.50
35603;DHT22;21725;50.836;4.368;2023-06-14T13:34:14;28.70;57.40
35603;DHT22;21725;50.836;4.368;2023-06-14T13:37:16;28.70;56.70
35603;DHT22;21725;50.836;4.368;2023-06-14T13:40:17;28.50;56.90
35603;DHT22;21725;50.836;4.368;2023-06-14T13:43:18;28.50;57.00
35603;DHT22;21725;50.836;4.368;2023-06-14T13:46:19;28.40;57.00
35603;DHT22;21725;50.836;4.368;2023-06-14T13:49:20;28.30;57.70
35603;DHT22;21725;50.836;4.368;2023-06-14T13:52:21;28.50;57.10
35603;DHT22;21725;50.836;4.368;2023-06-14T13:55:21;28.40;57.10
35603;DHT22;21725;50.836;4.368;2023-06-14T13:58:23;28.80;55.90
35603;DHT22;21725;50.836;4.368;2023-06-14T14:01:24;29.00;55.00
35603;DHT22;21725;50.836;4.368;2023-06-14T14:04:26;28.90;54.80
35603;DHT22;21725;50.836;4.368;2023-06-14T14:07:26;28.70;55.10
35603;DHT22;21725;50.836;4.368;2023-06-14T14:10:29;28.80;54.50
35603;DHT22;21725;50.836;4.368;2023-06-14T14:13:29;28.90;55.00
35603;DHT22;21725;50.836;4.368;2023-06-14T14:16:30;28.70;55.00
35603;DHT22;21725;50.836;4.368;2023-06-14T14:19:32;28.50;55.60
35603;DHT22;21725;50.836;4.368;2023-06-14T14:22:33;28.60;55.10
35603;DHT22;21725;50.836;4.368;2023-06-14T14:25:34;28.90;55.50
35603;DHT22;21725;50.836;4.368;2023-06-14T14:28:34;29.00;54.50
35603;DHT22;21725;50.836;4.368;2023-06-14T14:31:35;28.80;54.80
35603;DHT22;21725;50.836;4.368;2023-06-14T14:34:36;28.60;54.90
35603;DHT22;21725;50.836;4.368;2023-06-14T14:37:37;28.80;54.60
35603;DHT22;21725;50.836;4.368;2023-06-14T14:40:38;28.70;54.80
35603;DHT22;21725;50.836;4.368;2023-06-14T14:43:39;28.80;54.50
35603;DHT22;21725;50.836;4.368;2023-06-14T14:46:40;29.00;54.50
35603;DHT22;21725;50.836;4.368;2023-06-14T14:49:40;28.90;54.80
35603;DHT22;21725;50.836;4.368;2023-06-14T14:52:42;28.90;54.60
35603;DHT22;21725;50.836;4.368;2023-06-14T14:55:43;28.80;55.20
35603;DHT22;21725;50.836;4.368;2023-06-14T14:58:44;29.00;54.20
35603;DHT22;21725;50.836;4.368;2023-06-14T15:01:45;28.90;53.90
35603;DHT22;21725;50.836;4.368;2023-06-14T15:04:46;28.60;54.30
35603;DHT22;21725;50.836;4.368;2023-06-14T15:07:47;28.50;54.20
35603;DHT22;21725;50.836;4.368;2023-06-14T15:10:48;28.50;54.10
35603;DHT22;21725;50.836;4.368;2023-06-14T15:13:49;28.40;54.10
35603;DHT22;21725;50.836;4.368;2023-06-14T15:16:50;28.30;54.50
35603;DHT22;21725;50.836;4.368;2023-06-14T15:19:51;28.50;54.40
35603;DHT22;21725;50.836;4.368;2023-06-14T15:22:52;28.40;54.60
35603;DHT22;21725;50.836;4.368;2023-06-14T15:25:53;28.40;54.90
35603;DHT22;21725;50.836;4.368;2023-06-14T15:28:53;28.30;55.40
35603;DHT22;21725;50.836;4.368;2023-06-14T15:31:54;28.40;55.20
35603;DHT22;21725;50.836;4.368;2023-06-14T15:34:55;28.40;55.30
35603;DHT22;21725;50.836;4.368;2023-06-14T15:37:56;28.40;55.30
35603;DHT22;21725;50.836;4.368;2023-06-14T15:40:57;28.40;55.20
35603;DHT22;21725;50.836;4.368;2023-06-14T15:43:58;28.50;55.60
35603;DHT22;21725;50.836;4.368;2023-06-14T15:46:59;28.50;55.20
35603;DHT22;21725;50.836;4.368;2023-06-14T15:49:59;28.30;55.30
35603;DHT22;21725;50.836;4.368;2023-06-14T15:53:00;28.00;55.80
35603;DHT22;21725;50.836;4.368;2023-06-14T15:56:01;27.90;55.80
35603;DHT22;21725;50.836;4.368;2023-06-14T15:59:01;28.10;55.70
35603;DHT22;21725;50.836;4.368;2023-06-14T16:02:03;28.10;55.40
35603;DHT22;21725;50.836;4.368;2023-06-14T16:05:04;28.20;55.80
35603;DHT22;21725;50.836;4.368;2023-06-14T16:08:04;28.10;56.10
35603;DHT22;21725;50.836;4.368;2023-06-14T16:11:05;28.30;55.60
35603;DHT22;21725;50.836;4.368;2023-06-14T16:14:06;28.50;55.60
35603;DHT22;21725;50.836;4.368;2023-06-14T16:17:07;28.40;55.50
35603;DHT22;21725;50.836;4.368;2023-06-14T16:20:08;28.40;55.20
35603;DHT22;21725;50.836;4.368;2023-06-14T16:23:09;28.50;55.30
35603;DHT22;21725;50.836;4.368;2023-06-14T16:26:11;28.50;55.50
35603;DHT22;21725;50.836;4.368;2023-06-14T16:29:13;28.40;55.60
35603;DHT22;21725;50.836;4.368;2023-06-14T16:32:14;28.30;55.70
35603;DHT22;21725;50.836;4.368;2023-06-14T16:35:15;28.40;56.10
35603;DHT22;21725;50.836;4.368;2023-06-14T16:38:15;28.20;56.10
35603;DHT22;21725;50.836;4.368;2023-06-14T16:41:16;28.20;56.30
35603;DHT22;21725;50.836;4.368;2023-06-14T16:44:17;28.40;56.40
35603;DHT22;21725;50.836;4.368;2023-06-14T16:47:18;28.30;56.70
35603;DHT22;21725;50.836;4.368;2023-06-14T16:50:19;28.40;56.80
35603;DHT22;21725;50.836;4.368;2023-06-14T16:53:21;28.50;56.30
35603;DHT22;21725;50.836;4.368;2023-06-14T16:56:22;28.40;56.40
35603;DHT22;21725;50.836;4.368;2023-06-14T16:59:26;28.50;56.10
35603;DHT22;21725;50.836;4.368;2023-06-14T17:02:27;28.20;56.00
35603;DHT22;21725;50.836;4.368;2023-06-14T17:05:28;28.00;56.00
35603;DHT22;21725;50.836;4.368;2023-06-14T17:08:28;28.00;56.10
35603;DHT22;21725;50.836;4.368;2023-06-14T17:11:29;27.90;56.30
35603;DHT22;21725;50.836;4.368;2023-06-14T17:14:30;27.90;56.60
35603;DHT22;21725;50.836;4.368;2023-06-14T17:17:31;28.00;56.60
35603;DHT22;21725;50.836;4.368;2023-06-14T17:20:32;28.30;56.20
35603;DHT22;21725;50.836;4.368;2023-06-14T17:23:33;28.20;56.20
35603;DHT22;21725;50.836;4.368;2023-06-14T17:26:34;28.20;55.70
35603;DHT22;21725;50.836;4.368;2023-06-14T17:29:35;28.10;55.40
35603;DHT22;21725;50.836;4.368;2023-06-14T17:32:36;28.00;55.60
35603;DHT22;21725;50.836;4.368;2023-06-14T17:35:36;27.90;56.00
35603;DHT22;21725;50.836;4.368;2023-06-14T17:38:38;27.90;56.00
35603;DHT22;21725;50.836;4.368;2023-06-14T17:41:38;27.80;56.00
35603;DHT22;21725;50.836;4.368;2023-06-14T17:44:39;27.50;56.50
35603;DHT22;21725;50.836;4.368;2023-06-14T17:48:18;27.50;56.70
35603;DHT22;21725;50.836;4.368;2023-06-14T17:51:19;27.40;56.60
35603;DHT22;21725;50.836;4.368;2023-06-14T17:54:20;27.30;56.60
35603;DHT22;21725;50.836;4.368;2023-06-14T17:57:21;27.20;56.60
35603;DHT22;21725;50.836;4.368;2023-06-14T18:00:22;27.20;56.50
35603;DHT22;21725;50.836;4.368;2023-06-14T18:03:23;27.30;56.30
35603;DHT22;21725;50.836;4.368;2023-06-14T18:06:24;27.30;55.80
35603;DHT22;21725;50.836;4.368;2023-06-14T18:09:25;27.20;55.90
35603;DHT22;21725;50.836;4.368;2023-06-14T18:12:27;27.10;55.60
35603;DHT22;21725;50.836;4.368;2023-06-14T18:15:28;27.10;55.50
35603;DHT22;21725;50.836;4.368;2023-06-14T18:18:28;27.10;55.10
35603;DHT22;21725;50.836;4.368;2023-06-14T18:21:29;27.30;55.70
35603;DHT22;21725;50.836;4.368;2023-06-14T18:24:30;27.10;56.00
35603;DHT22;21725;50.836;4.368;2023-06-14T18:27:31;27.10;56.60
35603;DHT22;21725;50.836;4.368;2023-06-14T18:30:31;27.10;56.70
35603;DHT22;21725;50.836;4.368;2023-06-14T18:33:32;27.10;56.80
35603;DHT22;21725;50.836;4.368;2023-06-14T18:36:33;27.10;56.90
35603;DHT22;21725;50.836;4.368;2023-06-14T18:39:34;27.00;57.70
35603;DHT22;21725;50.836;4.368;2023-06-14T18:42:34;26.90;57.20
35603;DHT22;21725;50.836;4.368;2023-06-14T18:45:35;26.90;57.00
35603;DHT22;21725;50.836;4.368;2023-06-14T18:48:36;26.90;57.30
35603;DHT22;21725;50.836;4.368;2023-06-14T18:51:37;26.50;57.80
35603;DHT22;21725;50.836;4.368;2023-06-14T18:54:39;26.40;58.10
35603;DHT22;21725;50.836;4.368;2023-06-14T18:57:40;26.30;58.50
35603;DHT22;21725;50.836;4.368;2023-06-14T19:00:41;26.40;58.30
35603;DHT22;21725;50.836;4.368;2023-06-14T19:03:41;26.50;58.30
35603;DHT22;21725;50.836;4.368;2023-06-14T19:06:42;26.40;58.50
35603;DHT22;21725;50.836;4.368;2023-06-14T19:09:43;26.30;58.70
35603;DHT22;21725;50.836;4.368;2023-06-14T19:12:44;26.40;58.40
35603;DHT22;21725;50.836;4.368;2023-06-14T19:15:44;26.40;58.50
35603;DHT22;21725;50.836;4.368;2023-06-14T19:18:45;26.30;58.70
35603;DHT22;21725;50.836;4.368;2023-06-14T19:21:46;26.20;58.90
35603;DHT22;21725;50.836;4.368;2023-06-14T19:24:47;26.20;59.10
35603;DHT22;21725;50.836;4.368;2023-06-14T19:27:48;26.10;59.00
35603;DHT22;21725;50.836;4.368;2023-06-14T19:30:49;26.10;59.30
35603;DHT22;21725;50.836;4.368;2023-06-14T19:33:50;26.10;59.30
35603;DHT22;21725;50.836;4.368;2023-06-14T19:36:52;26.10;59.50
35603;DHT22;21725;50.836;4.368;2023-06-14T19:39:53;26.00;59.70